Alba, Missouri
Current Conditions -  °F | °C
As of 4:53 AM on Thursday 23 Oct 2014 (Local Time) from KJLN Reporting Station
Scattered Clouds Scattered Clouds  
Wind Chill: 57°   Ceiling: Unl
Heat Index: 57°   Visibility: 10mi
Dew Point: 51°   Wind: 8mph
Humidity: 81%   Direction: 180°S
Pressure: 30.14"   Gusts: NA
Location:  37.24°N, 94.42°W
Report Text: KJLN 230953Z AUTO 18007KT 10SM SCT055 14/11 A3014 RMK AO2 SLP200 T01390106
Loading
Personal Weather Stations






























Interactive Weather Map
Tropical Storm Tracking
New forecast layout! Learn more

10-Day Weather Forecast

Advertisements
Track Severe Weather on mobile